Terminal Aerodrome Forecast
Issued by NWS Albuquerque, NM

Home | Current Version | Previous Version | Text Only | Print | Product List | Glossary On
Versions: 1 2 3 4 5 6 7 8 9 10 11 12 13 14 15 16 17 18 19 20 21 22 23 24 25 26 27
146
FTUS45 KABQ 272102 AAD
TAFABQ
TAF AMD
KABQ 272102Z 2721/2818 18011KT P6SM VCSH SCT100
      TEMPO 2721/2723 VRB22G38KT 6SM -TSRA BKN100CB
     FM272300 23012G22KT P6SM SCT100
     FM280300 20010KT P6SM SCT130
     FM280600 16008KT P6SM SKC
     FM281500 20006KT P6SM SKC
     FM281700 25010KT P6SM SKC=

USA.gov is the U.S. government's official web portal to all federal, state and local government web resources and services.